sensor_id;sensor_type;location;lat;lon;timestamp;P1;durP1;ratioP1;P2;durP2;ratioP2
72557;SDS011;60583;50.094;8.748;2022-12-17T00:00:58;29.35;;;11.90;;
72557;SDS011;60583;50.094;8.748;2022-12-17T00:03:42;22.73;;;10.85;;
72557;SDS011;60583;50.094;8.748;2022-12-17T00:06:26;25.63;;;11.10;;
72557;SDS011;60583;50.094;8.748;2022-12-17T00:09:10;24.80;;;10.07;;
72557;SDS011;60583;50.094;8.748;2022-12-17T00:11:53;23.83;;;9.52;;
72557;SDS011;60583;50.094;8.748;2022-12-17T00:14:37;23.65;;;9.48;;
72557;SDS011;60583;50.094;8.748;2022-12-17T00:17:21;21.33;;;9.63;;
72557;SDS011;60583;50.094;8.748;2022-12-17T00:20:05;19.80;;;9.10;;
72557;SDS011;60583;50.094;8.748;2022-12-17T00:22:56;18.15;;;8.32;;
72557;SDS011;60583;50.094;8.748;2022-12-17T00:25:48;22.17;;;8.98;;
72557;SDS011;60583;50.094;8.748;2022-12-17T00:28:33;20.05;;;8.63;;
72557;SDS011;60583;50.094;8.748;2022-12-17T00:31:16;18.75;;;8.15;;
72557;SDS011;60583;50.094;8.748;2022-12-17T00:34:00;19.60;;;8.73;;
72557;SDS011;60583;50.094;8.748;2022-12-17T00:36:44;19.60;;;8.13;;
72557;SDS011;60583;50.094;8.748;2022-12-17T00:39:28;18.83;;;8.30;;
72557;SDS011;60583;50.094;8.748;2022-12-17T00:42:11;19.63;;;8.90;;
72557;SDS011;60583;50.094;8.748;2022-12-17T00:44:55;20.08;;;8.52;;
72557;SDS011;60583;50.094;8.748;2022-12-17T00:47:39;18.08;;;8.35;;
72557;SDS011;60583;50.094;8.748;2022-12-17T00:50:23;20.33;;;8.68;;
72557;SDS011;60583;50.094;8.748;2022-12-17T00:53:06;19.60;;;7.88;;
72557;SDS011;60583;50.094;8.748;2022-12-17T00:55:50;17.52;;;8.25;;
72557;SDS011;60583;50.094;8.748;2022-12-17T00:58:34;17.48;;;8.40;;
72557;SDS011;60583;50.094;8.748;2022-12-17T01:01:18;20.40;;;8.75;;
72557;SDS011;60583;50.094;8.748;2022-12-17T01:04:01;18.83;;;8.48;;
72557;SDS011;60583;50.094;8.748;2022-12-17T01:06:45;19.65;;;8.93;;
72557;SDS011;60583;50.094;8.748;2022-12-17T01:09:29;15.88;;;8.02;;
72557;SDS011;60583;50.094;8.748;2022-12-17T01:12:13;19.60;;;8.18;;
72557;SDS011;60583;50.094;8.748;2022-12-17T01:14:56;18.23;;;7.43;;
72557;SDS011;60583;50.094;8.748;2022-12-17T01:17:40;16.90;;;7.80;;
72557;SDS011;60583;50.094;8.748;2022-12-17T01:20:24;17.17;;;7.50;;
72557;SDS011;60583;50.094;8.748;2022-12-17T01:23:07;17.88;;;7.95;;
72557;SDS011;60583;50.094;8.748;2022-12-17T01:25:55;19.30;;;8.63;;
72557;SDS011;60583;50.094;8.748;2022-12-17T01:28:40;17.83;;;7.97;;
72557;SDS011;60583;50.094;8.748;2022-12-17T01:31:25;21.33;;;8.95;;
72557;SDS011;60583;50.094;8.748;2022-12-17T01:34:09;15.70;;;7.65;;
72557;SDS011;60583;50.094;8.748;2022-12-17T01:36:52;17.73;;;8.15;;
72557;SDS011;60583;50.094;8.748;2022-12-17T01:39:36;14.75;;;7.53;;
72557;SDS011;60583;50.094;8.748;2022-12-17T01:42:20;16.05;;;7.78;;
72557;SDS011;60583;50.094;8.748;2022-12-17T01:45:05;17.48;;;8.13;;
72557;SDS011;60583;50.094;8.748;2022-12-17T01:48:37;18.67;;;7.78;;
72557;SDS011;60583;50.094;8.748;2022-12-17T01:51:00;16.95;;;9.45;;
72557;SDS011;60583;50.094;8.748;2022-12-17T01:53:46;20.77;;;9.35;;
72557;SDS011;60583;50.094;8.748;2022-12-17T01:56:33;20.95;;;9.23;;
72557;SDS011;60583;50.094;8.748;2022-12-17T01:59:23;21.08;;;9.38;;
72557;SDS011;60583;50.094;8.748;2022-12-17T02:02:15;20.05;;;8.63;;
72557;SDS011;60583;50.094;8.748;2022-12-17T02:04:59;18.50;;;9.00;;
72557;SDS011;60583;50.094;8.748;2022-12-17T02:07:50;18.13;;;7.82;;
72557;SDS011;60583;50.094;8.748;2022-12-17T02:10:44;19.40;;;8.88;;
72557;SDS011;60583;50.094;8.748;2022-12-17T02:13:37;17.63;;;7.55;;
72557;SDS011;60583;50.094;8.748;2022-12-17T02:16:38;19.77;;;8.38;;
72557;SDS011;60583;50.094;8.748;2022-12-17T02:22:26;19.83;;;8.38;;
72557;SDS011;60583;50.094;8.748;2022-12-17T02:25:39;16.40;;;7.57;;
72557;SDS011;60583;50.094;8.748;2022-12-17T02:28:31;20.40;;;7.65;;
72557;SDS011;60583;50.094;8.748;2022-12-17T02:31:17;15.18;;;7.35;;
72557;SDS011;60583;50.094;8.748;2022-12-17T02:34:01;19.55;;;9.32;;
72557;SDS011;60583;50.094;8.748;2022-12-17T02:36:45;15.82;;;8.30;;
72557;SDS011;60583;50.094;8.748;2022-12-17T02:39:29;19.50;;;8.13;;
72557;SDS011;60583;50.094;8.748;2022-12-17T02:42:13;18.75;;;7.68;;
72557;SDS011;60583;50.094;8.748;2022-12-17T02:44:58;17.73;;;8.70;;
72557;SDS011;60583;50.094;8.748;2022-12-17T02:47:43;18.85;;;8.93;;
72557;SDS011;60583;50.094;8.748;2022-12-17T02:50:27;18.48;;;8.05;;
72557;SDS011;60583;50.094;8.748;2022-12-17T02:53:11;20.42;;;8.77;;
72557;SDS011;60583;50.094;8.748;2022-12-17T02:55:55;17.90;;;8.48;;
72557;SDS011;60583;50.094;8.748;2022-12-17T02:58:39;19.65;;;9.30;;
72557;SDS011;60583;50.094;8.748;2022-12-17T03:01:23;18.30;;;8.55;;
72557;SDS011;60583;50.094;8.748;2022-12-17T03:04:07;20.27;;;8.38;;
72557;SDS011;60583;50.094;8.748;2022-12-17T03:06:50;16.75;;;7.53;;
72557;SDS011;60583;50.094;8.748;2022-12-17T03:09:35;18.13;;;8.88;;
72557;SDS011;60583;50.094;8.748;2022-12-17T03:12:19;18.48;;;8.85;;
72557;SDS011;60583;50.094;8.748;2022-12-17T03:15:02;18.13;;;9.02;;
72557;SDS011;60583;50.094;8.748;2022-12-17T03:17:47;19.75;;;8.88;;
72557;SDS011;60583;50.094;8.748;2022-12-17T03:20:31;16.30;;;8.18;;
72557;SDS011;60583;50.094;8.748;2022-12-17T03:23:15;19.45;;;8.90;;
72557;SDS011;60583;50.094;8.748;2022-12-17T03:25:59;21.08;;;8.85;;
72557;SDS011;60583;50.094;8.748;2022-12-17T03:28:44;17.80;;;8.80;;
72557;SDS011;60583;50.094;8.748;2022-12-17T03:31:29;20.02;;;9.20;;
72557;SDS011;60583;50.094;8.748;2022-12-17T03:34:12;19.08;;;8.57;;
72557;SDS011;60583;50.094;8.748;2022-12-17T03:36:56;20.50;;;8.68;;
72557;SDS011;60583;50.094;8.748;2022-12-17T03:39:40;17.65;;;8.20;;
72557;SDS011;60583;50.094;8.748;2022-12-17T03:42:24;19.45;;;8.88;;
72557;SDS011;60583;50.094;8.748;2022-12-17T03:45:08;19.70;;;8.98;;
72557;SDS011;60583;50.094;8.748;2022-12-17T03:48:02;20.05;;;9.55;;
72557;SDS011;60583;50.094;8.748;2022-12-17T03:50:51;19.00;;;10.23;;
72557;SDS011;60583;50.094;8.748;2022-12-17T03:53:36;21.40;;;9.05;;
72557;SDS011;60583;50.094;8.748;2022-12-17T03:56:20;21.83;;;9.57;;
72557;SDS011;60583;50.094;8.748;2022-12-17T03:59:04;21.33;;;8.38;;
72557;SDS011;60583;50.094;8.748;2022-12-17T04:02:05;21.10;;;8.82;;
72557;SDS011;60583;50.094;8.748;2022-12-17T04:04:49;18.52;;;8.95;;
72557;SDS011;60583;50.094;8.748;2022-12-17T04:07:33;23.40;;;10.18;;
72557;SDS011;60583;50.094;8.748;2022-12-17T04:10:16;22.90;;;9.63;;
72557;SDS011;60583;50.094;8.748;2022-12-17T04:13:01;26.98;;;10.43;;
72557;SDS011;60583;50.094;8.748;2022-12-17T04:15:44;27.95;;;11.52;;
72557;SDS011;60583;50.094;8.748;2022-12-17T04:18:28;26.00;;;10.60;;
72557;SDS011;60583;50.094;8.748;2022-12-17T04:21:12;24.55;;;10.82;;
72557;SDS011;60583;50.094;8.748;2022-12-17T04:23:55;22.85;;;10.50;;
72557;SDS011;60583;50.094;8.748;2022-12-17T04:26:39;24.42;;;9.65;;
72557;SDS011;60583;50.094;8.748;2022-12-17T04:29:23;21.00;;;9.43;;
72557;SDS011;60583;50.094;8.748;2022-12-17T04:32:07;25.45;;;10.77;;
72557;SDS011;60583;50.094;8.748;2022-12-17T04:34:51;26.15;;;10.65;;
72557;SDS011;60583;50.094;8.748;2022-12-17T04:37:35;25.77;;;10.60;;
72557;SDS011;60583;50.094;8.748;2022-12-17T04:40:18;28.45;;;10.68;;
72557;SDS011;60583;50.094;8.748;2022-12-17T04:43:09;24.73;;;9.90;;
72557;SDS011;60583;50.094;8.748;2022-12-17T04:45:54;27.17;;;11.00;;
72557;SDS011;60583;50.094;8.748;2022-12-17T04:48:38;23.23;;;10.05;;
72557;SDS011;60583;50.094;8.748;2022-12-17T04:51:23;34.20;;;12.20;;
72557;SDS011;60583;50.094;8.748;2022-12-17T04:54:07;36.08;;;11.88;;
72557;SDS011;60583;50.094;8.748;2022-12-17T04:56:50;27.30;;;11.52;;
72557;SDS011;60583;50.094;8.748;2022-12-17T04:59:34;28.17;;;11.57;;
72557;SDS011;60583;50.094;8.748;2022-12-17T05:02:18;27.58;;;11.77;;
72557;SDS011;60583;50.094;8.748;2022-12-17T05:05:02;30.40;;;12.70;;
72557;SDS011;60583;50.094;8.748;2022-12-17T05:07:46;31.58;;;11.48;;
72557;SDS011;60583;50.094;8.748;2022-12-17T05:10:30;31.33;;;11.77;;
72557;SDS011;60583;50.094;8.748;2022-12-17T05:13:14;31.98;;;12.32;;
72557;SDS011;60583;50.094;8.748;2022-12-17T05:15:57;36.47;;;11.82;;
72557;SDS011;60583;50.094;8.748;2022-12-17T05:18:41;30.00;;;11.30;;
72557;SDS011;60583;50.094;8.748;2022-12-17T05:21:26;32.20;;;11.77;;
72557;SDS011;60583;50.094;8.748;2022-12-17T05:24:10;30.30;;;12.55;;
72557;SDS011;60583;50.094;8.748;2022-12-17T05:26:54;33.22;;;11.93;;
72557;SDS011;60583;50.094;8.748;2022-12-17T05:29:37;33.25;;;11.80;;
72557;SDS011;60583;50.094;8.748;2022-12-17T05:32:21;32.75;;;12.90;;
72557;SDS011;60583;50.094;8.748;2022-12-17T05:35:05;30.35;;;12.25;;
72557;SDS011;60583;50.094;8.748;2022-12-17T05:37:49;28.08;;;11.95;;
72557;SDS011;60583;50.094;8.748;2022-12-17T05:40:33;33.65;;;11.23;;
72557;SDS011;60583;50.094;8.748;2022-12-17T05:43:17;30.88;;;11.70;;
72557;SDS011;60583;50.094;8.748;2022-12-17T05:46:01;30.10;;;11.70;;
72557;SDS011;60583;50.094;8.748;2022-12-17T05:48:45;33.17;;;12.02;;
72557;SDS011;60583;50.094;8.748;2022-12-17T05:51:29;30.02;;;12.52;;
72557;SDS011;60583;50.094;8.748;2022-12-17T05:54:13;36.05;;;13.85;;
72557;SDS011;60583;50.094;8.748;2022-12-17T05:56:57;34.28;;;12.57;;
72557;SDS011;60583;50.094;8.748;2022-12-17T05:59:41;34.08;;;13.23;;
72557;SDS011;60583;50.094;8.748;2022-12-17T06:02:25;38.47;;;13.10;;
72557;SDS011;60583;50.094;8.748;2022-12-17T06:05:09;34.20;;;12.13;;
72557;SDS011;60583;50.094;8.748;2022-12-17T06:08:00;35.03;;;12.68;;
72557;SDS011;60583;50.094;8.748;2022-12-17T06:10:53;31.52;;;12.65;;
72557;SDS011;60583;50.094;8.748;2022-12-17T06:13:40;33.65;;;12.77;;
72557;SDS011;60583;50.094;8.748;2022-12-17T06:16:23;38.60;;;13.18;;
72557;SDS011;60583;50.094;8.748;2022-12-17T06:19:07;40.05;;;13.20;;
72557;SDS011;60583;50.094;8.748;2022-12-17T06:21:51;37.03;;;13.02;;
72557;SDS011;60583;50.094;8.748;2022-12-17T06:24:35;29.92;;;12.27;;
72557;SDS011;60583;50.094;8.748;2022-12-17T06:27:18;34.28;;;12.82;;
72557;SDS011;60583;50.094;8.748;2022-12-17T06:30:02;28.67;;;12.23;;
72557;SDS011;60583;50.094;8.748;2022-12-17T06:32:46;34.60;;;12.70;;
72557;SDS011;60583;50.094;8.748;2022-12-17T06:35:30;31.85;;;12.43;;
72557;SDS011;60583;50.094;8.748;2022-12-17T06:38:14;32.75;;;12.23;;
72557;SDS011;60583;50.094;8.748;2022-12-17T06:41:01;34.35;;;12.63;;
72557;SDS011;60583;50.094;8.748;2022-12-17T06:43:46;32.20;;;12.13;;
72557;SDS011;60583;50.094;8.748;2022-12-17T06:46:29;33.75;;;11.55;;
72557;SDS011;60583;50.094;8.748;2022-12-17T06:49:13;30.70;;;13.45;;
72557;SDS011;60583;50.094;8.748;2022-12-17T06:51:57;32.72;;;13.00;;
72557;SDS011;60583;50.094;8.748;2022-12-17T06:54:41;34.30;;;12.57;;
72557;SDS011;60583;50.094;8.748;2022-12-17T06:57:24;32.33;;;13.43;;
72557;SDS011;60583;50.094;8.748;2022-12-17T07:00:08;33.15;;;12.43;;
72557;SDS011;60583;50.094;8.748;2022-12-17T07:02:54;32.45;;;12.82;;
72557;SDS011;60583;50.094;8.748;2022-12-17T07:05:39;30.65;;;11.90;;
72557;SDS011;60583;50.094;8.748;2022-12-17T07:08:22;32.13;;;12.30;;
72557;SDS011;60583;50.094;8.748;2022-12-17T07:11:06;29.60;;;12.07;;
72557;SDS011;60583;50.094;8.748;2022-12-17T07:13:50;26.45;;;11.23;;
72557;SDS011;60583;50.094;8.748;2022-12-17T07:16:34;29.88;;;12.70;;
72557;SDS011;60583;50.094;8.748;2022-12-17T07:19:18;29.23;;;12.38;;
72557;SDS011;60583;50.094;8.748;2022-12-17T07:22:01;28.10;;;11.18;;
72557;SDS011;60583;50.094;8.748;2022-12-17T07:24:45;27.08;;;12.13;;
72557;SDS011;60583;50.094;8.748;2022-12-17T07:27:29;29.13;;;10.73;;
72557;SDS011;60583;50.094;8.748;2022-12-17T07:30:13;26.45;;;11.50;;
72557;SDS011;60583;50.094;8.748;2022-12-17T07:32:57;23.48;;;10.32;;
72557;SDS011;60583;50.094;8.748;2022-12-17T07:35:45;22.23;;;10.13;;
72557;SDS011;60583;50.094;8.748;2022-12-17T07:38:29;27.45;;;10.55;;
72557;SDS011;60583;50.094;8.748;2022-12-17T07:41:13;27.25;;;10.88;;
72557;SDS011;60583;50.094;8.748;2022-12-17T07:43:57;26.73;;;10.18;;
72557;SDS011;60583;50.094;8.748;2022-12-17T07:46:41;21.60;;;9.25;;
72557;SDS011;60583;50.094;8.748;2022-12-17T07:49:25;23.20;;;9.60;;
72557;SDS011;60583;50.094;8.748;2022-12-17T07:52:08;22.60;;;9.02;;
72557;SDS011;60583;50.094;8.748;2022-12-17T07:54:52;21.42;;;8.77;;
72557;SDS011;60583;50.094;8.748;2022-12-17T07:57:36;20.40;;;7.88;;
72557;SDS011;60583;50.094;8.748;2022-12-17T08:00:20;22.25;;;8.70;;
72557;SDS011;60583;50.094;8.748;2022-12-17T08:03:03;21.75;;;9.10;;
72557;SDS011;60583;50.094;8.748;2022-12-17T08:05:47;21.40;;;10.15;;
72557;SDS011;60583;50.094;8.748;2022-12-17T08:08:31;22.65;;;8.30;;
72557;SDS011;60583;50.094;8.748;2022-12-17T08:11:15;21.83;;;8.18;;
72557;SDS011;60583;50.094;8.748;2022-12-17T08:13:59;18.50;;;8.65;;
72557;SDS011;60583;50.094;8.748;2022-12-17T08:16:43;22.85;;;8.75;;
72557;SDS011;60583;50.094;8.748;2022-12-17T08:19:27;20.95;;;8.85;;
72557;SDS011;60583;50.094;8.748;2022-12-17T08:22:11;20.45;;;9.18;;
72557;SDS011;60583;50.094;8.748;2022-12-17T08:24:54;24.70;;;9.65;;
72557;SDS011;60583;50.094;8.748;2022-12-17T08:27:38;25.65;;;9.80;;
72557;SDS011;60583;50.094;8.748;2022-12-17T08:30:22;25.63;;;10.27;;
72557;SDS011;60583;50.094;8.748;2022-12-17T08:33:05;28.17;;;10.60;;
72557;SDS011;60583;50.094;8.748;2022-12-17T08:35:53;28.67;;;11.05;;
72557;SDS011;60583;50.094;8.748;2022-12-17T08:38:38;27.63;;;10.68;;
72557;SDS011;60583;50.094;8.748;2022-12-17T08:41:21;31.30;;;12.10;;
72557;SDS011;60583;50.094;8.748;2022-12-17T08:44:05;26.80;;;10.43;;
72557;SDS011;60583;50.094;8.748;2022-12-17T08:46:49;25.90;;;10.45;;
72557;SDS011;60583;50.094;8.748;2022-12-17T08:49:33;28.25;;;11.35;;
72557;SDS011;60583;50.094;8.748;2022-12-17T08:52:16;30.00;;;12.43;;
72557;SDS011;60583;50.094;8.748;2022-12-17T08:55:00;24.75;;;11.73;;
72557;SDS011;60583;50.094;8.748;2022-12-17T08:57:51;29.73;;;10.93;;
72557;SDS011;60583;50.094;8.748;2022-12-17T09:00:38;31.33;;;11.13;;
72557;SDS011;60583;50.094;8.748;2022-12-17T09:03:22;28.20;;;11.45;;
72557;SDS011;60583;50.094;8.748;2022-12-17T09:06:07;25.98;;;11.10;;
72557;SDS011;60583;50.094;8.748;2022-12-17T09:08:50;27.20;;;11.02;;
72557;SDS011;60583;50.094;8.748;2022-12-17T09:11:35;28.25;;;11.32;;
72557;SDS011;60583;50.094;8.748;2022-12-17T09:14:19;23.45;;;9.35;;
72557;SDS011;60583;50.094;8.748;2022-12-17T09:17:03;25.10;;;10.00;;
72557;SDS011;60583;50.094;8.748;2022-12-17T09:19:46;22.73;;;9.50;;
72557;SDS011;60583;50.094;8.748;2022-12-17T09:22:30;25.02;;;9.73;;
72557;SDS011;60583;50.094;8.748;2022-12-17T09:25:14;20.77;;;8.68;;
72557;SDS011;60583;50.094;8.748;2022-12-17T09:28:01;22.10;;;9.02;;
72557;SDS011;60583;50.094;8.748;2022-12-17T09:30:45;25.38;;;9.88;;
72557;SDS011;60583;50.094;8.748;2022-12-17T09:33:29;26.20;;;9.25;;
72557;SDS011;60583;50.094;8.748;2022-12-17T09:36:13;23.45;;;8.35;;
72557;SDS011;60583;50.094;8.748;2022-12-17T09:38:57;23.02;;;9.30;;
72557;SDS011;60583;50.094;8.748;2022-12-17T09:44:43;24.52;;;9.65;;
72557;SDS011;60583;50.094;8.748;2022-12-17T09:47:50;26.67;;;9.68;;
72557;SDS011;60583;50.094;8.748;2022-12-17T09:50:44;25.13;;;9.43;;
72557;SDS011;60583;50.094;8.748;2022-12-17T09:53:36;20.17;;;7.97;;
72557;SDS011;60583;50.094;8.748;2022-12-17T09:56:24;23.17;;;9.35;;
72557;SDS011;60583;50.094;8.748;2022-12-17T09:59:20;25.25;;;9.88;;
72557;SDS011;60583;50.094;8.748;2022-12-17T10:02:12;22.33;;;8.73;;
72557;SDS011;60583;50.094;8.748;2022-12-17T10:05:06;21.38;;;8.20;;
72557;SDS011;60583;50.094;8.748;2022-12-17T10:07:56;26.50;;;9.60;;
72557;SDS011;60583;50.094;8.748;2022-12-17T10:10:42;21.75;;;9.52;;
72557;SDS011;60583;50.094;8.748;2022-12-17T10:13:28;21.88;;;8.45;;
72557;SDS011;60583;50.094;8.748;2022-12-17T10:16:45;22.10;;;8.93;;
72557;SDS011;60583;50.094;8.748;2022-12-17T10:19:28;26.63;;;9.45;;
72557;SDS011;60583;50.094;8.748;2022-12-17T10:22:15;25.08;;;9.45;;
72557;SDS011;60583;50.094;8.748;2022-12-17T10:25:03;26.35;;;9.95;;
72557;SDS011;60583;50.094;8.748;2022-12-17T10:27:48;24.40;;;9.75;;
72557;SDS011;60583;50.094;8.748;2022-12-17T10:30:32;23.77;;;9.15;;
72557;SDS011;60583;50.094;8.748;2022-12-17T10:33:35;29.27;;;10.50;;
72557;SDS011;60583;50.094;8.748;2022-12-17T10:36:21;26.30;;;9.93;;
72557;SDS011;60583;50.094;8.748;2022-12-17T10:39:11;23.95;;;8.82;;
72557;SDS011;60583;50.094;8.748;2022-12-17T10:41:59;24.30;;;11.27;;
72557;SDS011;60583;50.094;8.748;2022-12-17T10:44:43;27.20;;;9.57;;
72557;SDS011;60583;50.094;8.748;2022-12-17T10:47:44;22.13;;;9.38;;
72557;SDS011;60583;50.094;8.748;2022-12-17T10:50:39;23.17;;;9.50;;
72557;SDS011;60583;50.094;8.748;2022-12-17T10:53:24;24.15;;;9.52;;
72557;SDS011;60583;50.094;8.748;2022-12-17T10:56:18;28.08;;;9.65;;
72557;SDS011;60583;50.094;8.748;2022-12-17T10:59:09;28.30;;;10.05;;
72557;SDS011;60583;50.094;8.748;2022-12-17T11:01:56;22.88;;;9.80;;
72557;SDS011;60583;50.094;8.748;2022-12-17T11:04:49;23.48;;;8.70;;
72557;SDS011;60583;50.094;8.748;2022-12-17T11:07:38;24.48;;;9.82;;
72557;SDS011;60583;50.094;8.748;2022-12-17T11:10:25;24.27;;;10.25;;
72557;SDS011;60583;50.094;8.748;2022-12-17T11:13:16;29.08;;;11.32;;
72557;SDS011;60583;50.094;8.748;2022-12-17T11:16:15;27.48;;;10.65;;
72557;SDS011;60583;50.094;8.748;2022-12-17T11:21:53;25.38;;;10.07;;
72557;SDS011;60583;50.094;8.748;2022-12-17T11:24:46;29.88;;;11.63;;
72557;SDS011;60583;50.094;8.748;2022-12-17T11:27:52;27.77;;;10.70;;
72557;SDS011;60583;50.094;8.748;2022-12-17T11:30:48;24.58;;;9.40;;
72557;SDS011;60583;50.094;8.748;2022-12-17T11:33:49;27.55;;;10.65;;
72557;SDS011;60583;50.094;8.748;2022-12-17T11:36:55;30.77;;;11.00;;
72557;SDS011;60583;50.094;8.748;2022-12-17T11:39:51;28.50;;;10.68;;
72557;SDS011;60583;50.094;8.748;2022-12-17T11:42:45;29.17;;;12.02;;
72557;SDS011;60583;50.094;8.748;2022-12-17T11:58:06;30.85;;;11.98;;
72557;SDS011;60583;50.094;8.748;2022-12-17T12:04:13;27.98;;;10.95;;
72557;SDS011;60583;50.094;8.748;2022-12-17T12:07:23;29.92;;;10.45;;
72557;SDS011;60583;50.094;8.748;2022-12-17T12:10:24;29.52;;;10.85;;
72557;SDS011;60583;50.094;8.748;2022-12-17T12:16:26;30.15;;;12.45;;
72557;SDS011;60583;50.094;8.748;2022-12-17T12:19:18;30.95;;;11.93;;
72557;SDS011;60583;50.094;8.748;2022-12-17T12:31:33;27.98;;;11.50;;
72557;SDS011;60583;50.094;8.748;2022-12-17T12:34:24;32.75;;;12.77;;
72557;SDS011;60583;50.094;8.748;2022-12-17T12:37:14;30.23;;;12.02;;
72557;SDS011;60583;50.094;8.748;2022-12-17T12:40:02;31.60;;;12.07;;
72557;SDS011;60583;50.094;8.748;2022-12-17T12:45:54;30.13;;;11.40;;
72557;SDS011;60583;50.094;8.748;2022-12-17T12:51:32;29.27;;;12.20;;
72557;SDS011;60583;50.094;8.748;2022-12-17T12:54:31;31.48;;;12.43;;
72557;SDS011;60583;50.094;8.748;2022-12-17T12:57:41;31.05;;;11.43;;
72557;SDS011;60583;50.094;8.748;2022-12-17T13:00:38;35.55;;;12.20;;
72557;SDS011;60583;50.094;8.748;2022-12-17T13:03:38;30.45;;;13.27;;
72557;SDS011;60583;50.094;8.748;2022-12-17T13:06:37;32.25;;;12.23;;
72557;SDS011;60583;50.094;8.748;2022-12-17T13:09:03;37.42;;;13.18;;
72557;SDS011;60583;50.094;8.748;2022-12-17T13:11:35;30.80;;;12.45;;
72557;SDS011;60583;50.094;8.748;2022-12-17T13:14:15;33.08;;;13.52;;
72557;SDS011;60583;50.094;8.748;2022-12-17T13:19:20;33.28;;;13.43;;
72557;SDS011;60583;50.094;8.748;2022-12-17T13:24:43;33.35;;;12.70;;
72557;SDS011;60583;50.094;8.748;2022-12-17T13:27:27;35.25;;;13.70;;
72557;SDS011;60583;50.094;8.748;2022-12-17T13:29:58;33.78;;;14.10;;
72557;SDS011;60583;50.094;8.748;2022-12-17T13:37:58;38.97;;;16.35;;
72557;SDS011;60583;50.094;8.748;2022-12-17T13:43:18;37.58;;;14.60;;
72557;SDS011;60583;50.094;8.748;2022-12-17T13:45:45;49.53;;;20.73;;
72557;SDS011;60583;50.094;8.748;2022-12-17T13:48:20;34.22;;;14.43;;
72557;SDS011;60583;50.094;8.748;2022-12-17T13:50:54;43.97;;;16.92;;
72557;SDS011;60583;50.094;8.748;2022-12-17T13:53:22;36.83;;;14.70;;
72557;SDS011;60583;50.094;8.748;2022-12-17T13:55:51;33.30;;;13.55;;
72557;SDS011;60583;50.094;8.748;2022-12-17T13:58:22;34.25;;;14.18;;
72557;SDS011;60583;50.094;8.748;2022-12-17T14:01:08;35.67;;;14.73;;
72557;SDS011;60583;50.094;8.748;2022-12-17T14:03:41;34.63;;;13.95;;
72557;SDS011;60583;50.094;8.748;2022-12-17T14:06:13;32.70;;;12.60;;
72557;SDS011;60583;50.094;8.748;2022-12-17T14:08:39;33.97;;;13.32;;
72557;SDS011;60583;50.094;8.748;2022-12-17T14:11:05;31.92;;;12.85;;
72557;SDS011;60583;50.094;8.748;2022-12-17T14:13:49;31.30;;;12.05;;
72557;SDS011;60583;50.094;8.748;2022-12-17T14:16:15;29.23;;;12.25;;
72557;SDS011;60583;50.094;8.748;2022-12-17T14:18:46;34.03;;;13.10;;
72557;SDS011;60583;50.094;8.748;2022-12-17T14:21:16;40.47;;;14.77;;
72557;SDS011;60583;50.094;8.748;2022-12-17T14:23:42;32.20;;;13.32;;
72557;SDS011;60583;50.094;8.748;2022-12-17T14:26:09;35.30;;;13.68;;
72557;SDS011;60583;50.094;8.748;2022-12-17T14:28:46;37.70;;;13.88;;
72557;SDS011;60583;50.094;8.748;2022-12-17T14:33:40;34.53;;;13.60;;
72557;SDS011;60583;50.094;8.748;2022-12-17T14:38:34;36.60;;;13.30;;
72557;SDS011;60583;50.094;8.748;2022-12-17T14:41:01;28.58;;;12.48;;
72557;SDS011;60583;50.094;8.748;2022-12-17T14:43:53;29.95;;;11.32;;
72557;SDS011;60583;50.094;8.748;2022-12-17T14:46:21;28.35;;;10.50;;
72557;SDS011;60583;50.094;8.748;2022-12-17T14:48:56;33.08;;;11.73;;
72557;SDS011;60583;50.094;8.748;2022-12-17T14:51:35;35.25;;;12.13;;
72557;SDS011;60583;50.094;8.748;2022-12-17T14:56:47;34.53;;;12.43;;
72557;SDS011;60583;50.094;8.748;2022-12-17T14:59:32;29.67;;;10.88;;
72557;SDS011;60583;50.094;8.748;2022-12-17T15:04:37;30.15;;;10.95;;
72557;SDS011;60583;50.094;8.748;2022-12-17T15:07:05;34.53;;;12.63;;
72557;SDS011;60583;50.094;8.748;2022-12-17T15:09:37;32.90;;;11.50;;
72557;SDS011;60583;50.094;8.748;2022-12-17T15:12:03;31.05;;;11.07;;
72557;SDS011;60583;50.094;8.748;2022-12-17T15:14:29;29.95;;;11.57;;
72557;SDS011;60583;50.094;8.748;2022-12-17T15:16:55;32.03;;;11.43;;
72557;SDS011;60583;50.094;8.748;2022-12-17T15:19:21;30.88;;;10.85;;
72557;SDS011;60583;50.094;8.748;2022-12-17T15:21:46;34.35;;;11.05;;
72557;SDS011;60583;50.094;8.748;2022-12-17T15:24:13;26.98;;;10.35;;
72557;SDS011;60583;50.094;8.748;2022-12-17T15:26:41;28.50;;;11.20;;
72557;SDS011;60583;50.094;8.748;2022-12-17T15:29:06;31.55;;;11.27;;
72557;SDS011;60583;50.094;8.748;2022-12-17T15:31:32;33.40;;;11.55;;
72557;SDS011;60583;50.094;8.748;2022-12-17T15:33:57;33.17;;;12.13;;
72557;SDS011;60583;50.094;8.748;2022-12-17T15:36:23;38.08;;;15.05;;
72557;SDS011;60583;50.094;8.748;2022-12-17T15:38:48;36.80;;;13.23;;
72557;SDS011;60583;50.094;8.748;2022-12-17T15:41:14;39.80;;;14.43;;
72557;SDS011;60583;50.094;8.748;2022-12-17T15:43:57;31.08;;;12.18;;
72557;SDS011;60583;50.094;8.748;2022-12-17T15:46:23;30.00;;;11.63;;
72557;SDS011;60583;50.094;8.748;2022-12-17T15:48:48;27.50;;;10.52;;
72557;SDS011;60583;50.094;8.748;2022-12-17T15:51:13;32.88;;;12.35;;
72557;SDS011;60583;50.094;8.748;2022-12-17T15:53:39;31.05;;;10.82;;
72557;SDS011;60583;50.094;8.748;2022-12-17T15:56:04;34.20;;;10.77;;
72557;SDS011;60583;50.094;8.748;2022-12-17T15:58:30;34.75;;;11.93;;
72557;SDS011;60583;50.094;8.748;2022-12-17T16:00:56;33.72;;;12.82;;
72557;SDS011;60583;50.094;8.748;2022-12-17T16:03:21;38.97;;;12.10;;
72557;SDS011;60583;50.094;8.748;2022-12-17T16:05:47;31.33;;;11.48;;
72557;SDS011;60583;50.094;8.748;2022-12-17T16:08:12;37.22;;;12.88;;
72557;SDS011;60583;50.094;8.748;2022-12-17T16:10:37;35.75;;;11.88;;
72557;SDS011;60583;50.094;8.748;2022-12-17T16:13:03;33.08;;;12.52;;
72557;SDS011;60583;50.094;8.748;2022-12-17T16:15:29;34.53;;;13.38;;
72557;SDS011;60583;50.094;8.748;2022-12-17T16:17:54;28.85;;;11.20;;
72557;SDS011;60583;50.094;8.748;2022-12-17T16:20:20;40.80;;;12.90;;
72557;SDS011;60583;50.094;8.748;2022-12-17T16:22:45;33.03;;;11.80;;
72557;SDS011;60583;50.094;8.748;2022-12-17T16:25:11;31.50;;;11.10;;
72557;SDS011;60583;50.094;8.748;2022-12-17T16:27:36;37.45;;;14.25;;
72557;SDS011;60583;50.094;8.748;2022-12-17T16:30:03;30.60;;;12.73;;
72557;SDS011;60583;50.094;8.748;2022-12-17T16:32:29;33.75;;;12.02;;
72557;SDS011;60583;50.094;8.748;2022-12-17T16:34:55;34.22;;;13.27;;
72557;SDS011;60583;50.094;8.748;2022-12-17T16:37:20;32.35;;;11.85;;
72557;SDS011;60583;50.094;8.748;2022-12-17T16:39:45;35.28;;;12.65;;
72557;SDS011;60583;50.094;8.748;2022-12-17T16:42:11;35.05;;;12.15;;
72557;SDS011;60583;50.094;8.748;2022-12-17T16:44:36;38.35;;;12.35;;
72557;SDS011;60583;50.094;8.748;2022-12-17T16:47:02;36.47;;;13.23;;
72557;SDS011;60583;50.094;8.748;2022-12-17T16:49:27;34.20;;;11.88;;
72557;SDS011;60583;50.094;8.748;2022-12-17T16:51:53;32.70;;;12.48;;
72557;SDS011;60583;50.094;8.748;2022-12-17T16:54:20;31.85;;;11.75;;
72557;SDS011;60583;50.094;8.748;2022-12-17T16:56:47;37.85;;;13.80;;
72557;SDS011;60583;50.094;8.748;2022-12-17T16:59:14;36.95;;;14.05;;
72557;SDS011;60583;50.094;8.748;2022-12-17T17:01:40;34.08;;;12.10;;